sensor_id;sensor_type;location;lat;lon;timestamp;temperature;humidity
71088;SHT31;58747;50.674;4.616;2022-08-30T00:02:43;16.91;66.17
71088;SHT31;58747;50.674;4.616;2022-08-30T00:05:08;16.91;66.08
71088;SHT31;58747;50.674;4.616;2022-08-30T00:07:34;16.94;66.20
71088;SHT31;58747;50.674;4.616;2022-08-30T00:10:00;16.98;66.29
71088;SHT31;58747;50.674;4.616;2022-08-30T00:12:26;17.02;66.18
71088;SHT31;58747;50.674;4.616;2022-08-30T00:14:51;17.08;66.33
71088;SHT31;58747;50.674;4.616;2022-08-30T00:17:17;17.05;66.64
71088;SHT31;58747;50.674;4.616;2022-08-30T00:19:43;17.12;66.57
71088;SHT31;58747;50.674;4.616;2022-08-30T00:22:09;17.12;66.65
71088;SHT31;58747;50.674;4.616;2022-08-30T00:24:34;17.16;66.52
71088;SHT31;58747;50.674;4.616;2022-08-30T00:26:59;17.12;66.96
71088;SHT31;58747;50.674;4.616;2022-08-30T00:29:25;17.09;66.96
71088;SHT31;58747;50.674;4.616;2022-08-30T00:31:50;17.08;67.31
71088;SHT31;58747;50.674;4.616;2022-08-30T00:34:16;17.16;66.92
71088;SHT31;58747;50.674;4.616;2022-08-30T00:36:43;17.15;67.09
71088;SHT31;58747;50.674;4.616;2022-08-30T00:39:09;17.12;67.09
71088;SHT31;58747;50.674;4.616;2022-08-30T00:41:34;17.08;67.50
71088;SHT31;58747;50.674;4.616;2022-08-30T00:44:01;17.05;67.63
71088;SHT31;58747;50.674;4.616;2022-08-30T00:46:27;17.03;67.84
71088;SHT31;58747;50.674;4.616;2022-08-30T00:48:52;16.95;68.13
71088;SHT31;58747;50.674;4.616;2022-08-30T00:51:19;16.91;68.35
71088;SHT31;58747;50.674;4.616;2022-08-30T00:53:48;16.86;68.40
71088;SHT31;58747;50.674;4.616;2022-08-30T00:56:15;16.84;68.58
71088;SHT31;58747;50.674;4.616;2022-08-30T00:58:45;16.76;68.87
71088;SHT31;58747;50.674;4.616;2022-08-30T01:01:11;16.75;69.45
71088;SHT31;58747;50.674;4.616;2022-08-30T01:03:37;16.65;69.90
71088;SHT31;58747;50.674;4.616;2022-08-30T01:06:03;16.61;69.97
71088;SHT31;58747;50.674;4.616;2022-08-30T01:08:29;16.57;70.25
71088;SHT31;58747;50.674;4.616;2022-08-30T01:10:55;16.50;70.53
71088;SHT31;58747;50.674;4.616;2022-08-30T01:13:22;16.45;70.71
71088;SHT31;58747;50.674;4.616;2022-08-30T01:15:48;16.47;70.80
71088;SHT31;58747;50.674;4.616;2022-08-30T01:18:15;16.37;71.29
71088;SHT31;58747;50.674;4.616;2022-08-30T01:20:59;16.38;71.38
71088;SHT31;58747;50.674;4.616;2022-08-30T01:23:28;16.37;71.50
71088;SHT31;58747;50.674;4.616;2022-08-30T01:25:55;16.31;71.80
71088;SHT31;58747;50.674;4.616;2022-08-30T01:28:23;16.31;71.77
71088;SHT31;58747;50.674;4.616;2022-08-30T01:30:49;16.26;72.08
71088;SHT31;58747;50.674;4.616;2022-08-30T01:33:15;16.27;72.27
71088;SHT31;58747;50.674;4.616;2022-08-30T01:36:02;16.14;72.76
71088;SHT31;58747;50.674;4.616;2022-08-30T01:38:34;16.14;72.64
71088;SHT31;58747;50.674;4.616;2022-08-30T01:41:09;16.12;72.83
71088;SHT31;58747;50.674;4.616;2022-08-30T01:43:35;16.05;73.12
71088;SHT31;58747;50.674;4.616;2022-08-30T01:46:00;16.05;73.33
71088;SHT31;58747;50.674;4.616;2022-08-30T01:48:26;15.96;73.53
71088;SHT31;58747;50.674;4.616;2022-08-30T01:50:53;15.92;74.00
71088;SHT31;58747;50.674;4.616;2022-08-30T01:53:18;15.93;73.89
71088;SHT31;58747;50.674;4.616;2022-08-30T01:55:43;15.85;74.22
71088;SHT31;58747;50.674;4.616;2022-08-30T01:58:10;15.81;74.31
71088;SHT31;58747;50.674;4.616;2022-08-30T02:00:35;15.76;74.55
71088;SHT31;58747;50.674;4.616;2022-08-30T02:03:02;15.72;74.67
71088;SHT31;58747;50.674;4.616;2022-08-30T02:05:27;15.72;74.86
71088;SHT31;58747;50.674;4.616;2022-08-30T02:07:53;15.66;75.17
71088;SHT31;58747;50.674;4.616;2022-08-30T02:10:18;15.65;75.27
71088;SHT31;58747;50.674;4.616;2022-08-30T02:12:44;15.69;75.35
71088;SHT31;58747;50.674;4.616;2022-08-30T02:15:12;15.66;75.61
71088;SHT31;58747;50.674;4.616;2022-08-30T02:17:38;15.62;75.99
71088;SHT31;58747;50.674;4.616;2022-08-30T02:20:05;15.59;76.05
71088;SHT31;58747;50.674;4.616;2022-08-30T02:22:31;15.59;76.30
71088;SHT31;58747;50.674;4.616;2022-08-30T02:24:56;15.59;76.13
71088;SHT31;58747;50.674;4.616;2022-08-30T02:27:21;15.55;76.54
71088;SHT31;58747;50.674;4.616;2022-08-30T02:29:47;15.54;76.58
71088;SHT31;58747;50.674;4.616;2022-08-30T02:32:13;15.51;76.75
71088;SHT31;58747;50.674;4.616;2022-08-30T02:34:38;15.54;76.60
71088;SHT31;58747;50.674;4.616;2022-08-30T02:37:04;15.52;77.06
71088;SHT31;58747;50.674;4.616;2022-08-30T02:39:30;15.52;77.00
71088;SHT31;58747;50.674;4.616;2022-08-30T02:41:55;15.52;77.05
71088;SHT31;58747;50.674;4.616;2022-08-30T02:44:21;15.54;77.14
71088;SHT31;58747;50.674;4.616;2022-08-30T02:46:46;15.54;77.29
71088;SHT31;58747;50.674;4.616;2022-08-30T02:49:12;15.49;77.45
71088;SHT31;58747;50.674;4.616;2022-08-30T02:51:38;15.45;77.65
71088;SHT31;58747;50.674;4.616;2022-08-30T02:54:05;15.45;77.62
71088;SHT31;58747;50.674;4.616;2022-08-30T02:56:30;15.47;77.68
71088;SHT31;58747;50.674;4.616;2022-08-30T02:58:56;15.51;77.62
71088;SHT31;58747;50.674;4.616;2022-08-30T03:01:21;15.45;78.01
71088;SHT31;58747;50.674;4.616;2022-08-30T03:03:47;15.51;77.86
71088;SHT31;58747;50.674;4.616;2022-08-30T03:06:14;15.55;77.86
71088;SHT31;58747;50.674;4.616;2022-08-30T03:08:40;15.57;77.83
71088;SHT31;58747;50.674;4.616;2022-08-30T03:11:05;15.59;78.05
71088;SHT31;58747;50.674;4.616;2022-08-30T03:13:31;15.62;78.03
71088;SHT31;58747;50.674;4.616;2022-08-30T03:15:57;15.65;78.15
71088;SHT31;58747;50.674;4.616;2022-08-30T03:18:23;15.69;77.88
71088;SHT31;58747;50.674;4.616;2022-08-30T03:20:49;15.78;77.67
71088;SHT31;58747;50.674;4.616;2022-08-30T03:23:15;15.78;77.70
71088;SHT31;58747;50.674;4.616;2022-08-30T03:25:41;15.78;77.66
71088;SHT31;58747;50.674;4.616;2022-08-30T03:28:07;15.76;77.58
71088;SHT31;58747;50.674;4.616;2022-08-30T03:30:33;15.76;77.75
71088;SHT31;58747;50.674;4.616;2022-08-30T03:33:00;15.75;77.65
71088;SHT31;58747;50.674;4.616;2022-08-30T03:35:25;15.76;77.99
71088;SHT31;58747;50.674;4.616;2022-08-30T03:37:51;15.78;77.99
71088;SHT31;58747;50.674;4.616;2022-08-30T03:40:19;15.76;78.11
71088;SHT31;58747;50.674;4.616;2022-08-30T03:42:45;15.75;78.07
71088;SHT31;58747;50.674;4.616;2022-08-30T03:45:14;15.78;78.14
71088;SHT31;58747;50.674;4.616;2022-08-30T03:47:39;15.72;78.26
71088;SHT31;58747;50.674;4.616;2022-08-30T03:50:05;15.75;78.18
71088;SHT31;58747;50.674;4.616;2022-08-30T03:52:31;15.72;78.33
71088;SHT31;58747;50.674;4.616;2022-08-30T03:54:56;15.72;78.35
71088;SHT31;58747;50.674;4.616;2022-08-30T03:57:22;15.73;78.28
71088;SHT31;58747;50.674;4.616;2022-08-30T03:59:47;15.70;78.26
71088;SHT31;58747;50.674;4.616;2022-08-30T04:02:13;15.70;78.31
71088;SHT31;58747;50.674;4.616;2022-08-30T04:04:38;15.65;78.72
71088;SHT31;58747;50.674;4.616;2022-08-30T04:07:04;15.61;78.79
71088;SHT31;58747;50.674;4.616;2022-08-30T04:09:29;15.55;79.04
71088;SHT31;58747;50.674;4.616;2022-08-30T04:11:55;15.58;78.86
71088;SHT31;58747;50.674;4.616;2022-08-30T04:14:21;15.57;78.98
71088;SHT31;58747;50.674;4.616;2022-08-30T04:16:47;15.51;79.05
71088;SHT31;58747;50.674;4.616;2022-08-30T04:19:13;15.55;79.01
71088;SHT31;58747;50.674;4.616;2022-08-30T04:21:38;15.48;79.18
71088;SHT31;58747;50.674;4.616;2022-08-30T04:24:04;15.42;79.36
71088;SHT31;58747;50.674;4.616;2022-08-30T04:26:29;15.42;79.42
71088;SHT31;58747;50.674;4.616;2022-08-30T04:28:55;15.41;79.52
71088;SHT31;58747;50.674;4.616;2022-08-30T04:31:20;15.38;79.73
71088;SHT31;58747;50.674;4.616;2022-08-30T04:33:46;15.39;79.71
71088;SHT31;58747;50.674;4.616;2022-08-30T04:36:12;15.41;79.58
71088;SHT31;58747;50.674;4.616;2022-08-30T04:38:39;15.38;79.75
71088;SHT31;58747;50.674;4.616;2022-08-30T04:41:16;15.37;79.82
71088;SHT31;58747;50.674;4.616;2022-08-30T04:43:44;15.37;79.83
71088;SHT31;58747;50.674;4.616;2022-08-30T04:46:11;15.38;79.80
71088;SHT31;58747;50.674;4.616;2022-08-30T04:48:38;15.37;79.84
71088;SHT31;58747;50.674;4.616;2022-08-30T04:51:05;15.32;79.95
71088;SHT31;58747;50.674;4.616;2022-08-30T04:53:31;15.31;80.14
71088;SHT31;58747;50.674;4.616;2022-08-30T04:55:56;15.32;80.22
71088;SHT31;58747;50.674;4.616;2022-08-30T04:58:22;15.26;80.27
71088;SHT31;58747;50.674;4.616;2022-08-30T05:00:48;15.27;80.30
71088;SHT31;58747;50.674;4.616;2022-08-30T05:03:13;15.20;80.53
71088;SHT31;58747;50.674;4.616;2022-08-30T05:05:40;15.21;80.75
71088;SHT31;58747;50.674;4.616;2022-08-30T05:08:11;15.21;80.75
71088;SHT31;58747;50.674;4.616;2022-08-30T05:10:43;15.23;80.70
71088;SHT31;58747;50.674;4.616;2022-08-30T05:13:10;15.21;80.96
71088;SHT31;58747;50.674;4.616;2022-08-30T05:15:36;15.21;81.11
71088;SHT31;58747;50.674;4.616;2022-08-30T05:18:02;15.24;81.04
71088;SHT31;58747;50.674;4.616;2022-08-30T05:20:28;15.28;80.71
71088;SHT31;58747;50.674;4.616;2022-08-30T05:22:54;15.27;80.97
71088;SHT31;58747;50.674;4.616;2022-08-30T05:25:22;15.30;81.11
71088;SHT31;58747;50.674;4.616;2022-08-30T05:27:47;15.31;80.89
71088;SHT31;58747;50.674;4.616;2022-08-30T05:30:14;15.35;80.89
71088;SHT31;58747;50.674;4.616;2022-08-30T05:32:40;15.37;80.78
71088;SHT31;58747;50.674;4.616;2022-08-30T05:35:07;15.41;80.78
71088;SHT31;58747;50.674;4.616;2022-08-30T05:37:32;15.44;80.61
71088;SHT31;58747;50.674;4.616;2022-08-30T05:39:58;15.45;80.96
71088;SHT31;58747;50.674;4.616;2022-08-30T05:42:23;15.47;80.83
71088;SHT31;58747;50.674;4.616;2022-08-30T05:44:53;15.51;80.73
71088;SHT31;58747;50.674;4.616;2022-08-30T05:47:19;15.55;80.79
71088;SHT31;58747;50.674;4.616;2022-08-30T05:49:45;15.61;80.42
71088;SHT31;58747;50.674;4.616;2022-08-30T05:52:10;15.69;80.36
71088;SHT31;58747;50.674;4.616;2022-08-30T05:54:38;15.75;80.32
71088;SHT31;58747;50.674;4.616;2022-08-30T05:57:03;15.81;80.20
71088;SHT31;58747;50.674;4.616;2022-08-30T05:59:29;15.85;80.02
71088;SHT31;58747;50.674;4.616;2022-08-30T06:01:56;15.86;79.93
71088;SHT31;58747;50.674;4.616;2022-08-30T06:04:22;15.92;80.05
71088;SHT31;58747;50.674;4.616;2022-08-30T06:06:48;16.00;79.93
71088;SHT31;58747;50.674;4.616;2022-08-30T06:09:14;16.05;79.47
71088;SHT31;58747;50.674;4.616;2022-08-30T06:11:41;16.06;79.45
71088;SHT31;58747;50.674;4.616;2022-08-30T06:14:07;16.10;79.39
71088;SHT31;58747;50.674;4.616;2022-08-30T06:16:33;16.23;78.85
71088;SHT31;58747;50.674;4.616;2022-08-30T06:19:00;16.21;78.78
71088;SHT31;58747;50.674;4.616;2022-08-30T06:21:30;16.28;78.72
71088;SHT31;58747;50.674;4.616;2022-08-30T06:23:57;16.33;78.60
71088;SHT31;58747;50.674;4.616;2022-08-30T06:26:22;16.31;78.62
71088;SHT31;58747;50.674;4.616;2022-08-30T06:28:48;16.36;78.63
71088;SHT31;58747;50.674;4.616;2022-08-30T06:31:15;16.33;78.63
71088;SHT31;58747;50.674;4.616;2022-08-30T06:33:41;16.38;78.47
71088;SHT31;58747;50.674;4.616;2022-08-30T06:36:12;16.44;78.62
71088;SHT31;58747;50.674;4.616;2022-08-30T06:38:39;16.60;78.07
71088;SHT31;58747;50.674;4.616;2022-08-30T06:41:09;16.68;77.93
71088;SHT31;58747;50.674;4.616;2022-08-30T06:43:34;16.79;77.68
71088;SHT31;58747;50.674;4.616;2022-08-30T06:46:05;16.84;77.41
71088;SHT31;58747;50.674;4.616;2022-08-30T06:48:31;17.03;76.66
71088;SHT31;58747;50.674;4.616;2022-08-30T06:50:56;17.08;77.11
71088;SHT31;58747;50.674;4.616;2022-08-30T06:53:23;17.15;76.44
71088;SHT31;58747;50.674;4.616;2022-08-30T06:56:06;17.24;76.06
71088;SHT31;58747;50.674;4.616;2022-08-30T06:58:32;17.34;75.38
71088;SHT31;58747;50.674;4.616;2022-08-30T07:00:58;17.34;75.65
71088;SHT31;58747;50.674;4.616;2022-08-30T07:03:24;17.42;75.52
71088;SHT31;58747;50.674;4.616;2022-08-30T07:05:54;17.51;75.13
71088;SHT31;58747;50.674;4.616;2022-08-30T07:08:20;17.60;74.97
71088;SHT31;58747;50.674;4.616;2022-08-30T07:10:48;17.71;74.90
71088;SHT31;58747;50.674;4.616;2022-08-30T07:13:14;17.80;74.44
71088;SHT31;58747;50.674;4.616;2022-08-30T08:03:35;19.41;68.07
71088;SHT31;58747;50.674;4.616;2022-08-30T08:49:22;21.26;60.62
71088;SHT31;58747;50.674;4.616;2022-08-30T08:51:48;21.34;60.14
71088;SHT31;58747;50.674;4.616;2022-08-30T08:54:44;21.55;59.95
71088;SHT31;58747;50.674;4.616;2022-08-30T08:57:10;21.65;59.83
71088;SHT31;58747;50.674;4.616;2022-08-30T08:59:36;21.60;58.58
71088;SHT31;58747;50.674;4.616;2022-08-30T09:02:23;21.60;58.58
71088;SHT31;58747;50.674;4.616;2022-08-30T09:04:50;21.74;58.60
71088;SHT31;58747;50.674;4.616;2022-08-30T09:07:22;21.90;58.65
71088;SHT31;58747;50.674;4.616;2022-08-30T09:09:48;22.02;57.59
71088;SHT31;58747;50.674;4.616;2022-08-30T09:12:15;22.16;56.76
71088;SHT31;58747;50.674;4.616;2022-08-30T09:14:45;22.22;56.51
71088;SHT31;58747;50.674;4.616;2022-08-30T09:17:14;22.39;57.38
71088;SHT31;58747;50.674;4.616;2022-08-30T09:19:45;22.53;56.43
71088;SHT31;58747;50.674;4.616;2022-08-30T09:22:33;22.76;54.52
71088;SHT31;58747;50.674;4.616;2022-08-30T09:25:08;22.91;53.86
71088;SHT31;58747;50.674;4.616;2022-08-30T09:27:39;22.98;53.45
71088;SHT31;58747;50.674;4.616;2022-08-30T09:30:09;23.18;53.40
71088;SHT31;58747;50.674;4.616;2022-08-30T09:32:42;23.54;52.60
71088;SHT31;58747;50.674;4.616;2022-08-30T09:35:11;23.69;51.87
71088;SHT31;58747;50.674;4.616;2022-08-30T09:37:53;23.79;51.44
71088;SHT31;58747;50.674;4.616;2022-08-30T09:40:41;24.27;50.88
71088;SHT31;58747;50.674;4.616;2022-08-30T09:45:44;24.47;48.80
71088;SHT31;58747;50.674;4.616;2022-08-30T10:01:28;24.91;47.67
71088;SHT31;58747;50.674;4.616;2022-08-30T10:09:54;25.44;46.41
71088;SHT31;58747;50.674;4.616;2022-08-30T10:12:45;25.68;45.64
71088;SHT31;58747;50.674;4.616;2022-08-30T10:18:20;26.04;45.79
71088;SHT31;58747;50.674;4.616;2022-08-30T10:21:10;25.98;45.71
71088;SHT31;58747;50.674;4.616;2022-08-30T10:23:44;25.98;45.96
71088;SHT31;58747;50.674;4.616;2022-08-30T10:28:56;26.43;44.87
71088;SHT31;58747;50.674;4.616;2022-08-30T10:34:00;26.36;44.79
71088;SHT31;58747;50.674;4.616;2022-08-30T10:36:32;26.46;44.61
71088;SHT31;58747;50.674;4.616;2022-08-30T10:39:02;26.56;45.07
71088;SHT31;58747;50.674;4.616;2022-08-30T10:44:02;26.70;44.44
71088;SHT31;58747;50.674;4.616;2022-08-30T10:46:32;26.73;43.92
71088;SHT31;58747;50.674;4.616;2022-08-30T10:49:00;26.87;43.69
71088;SHT31;58747;50.674;4.616;2022-08-30T10:51:35;27.15;43.33
71088;SHT31;58747;50.674;4.616;2022-08-30T10:57:02;27.08;43.46
71088;SHT31;58747;50.674;4.616;2022-08-30T10:59:28;27.37;43.28
71088;SHT31;58747;50.674;4.616;2022-08-30T11:07:46;27.74;41.85
71088;SHT31;58747;50.674;4.616;2022-08-30T11:10:24;28.10;41.47
71088;SHT31;58747;50.674;4.616;2022-08-30T11:15:28;28.65;39.79
71088;SHT31;58747;50.674;4.616;2022-08-30T11:18:09;28.48;40.11
71088;SHT31;58747;50.674;4.616;2022-08-30T11:20:43;28.88;39.47
71088;SHT31;58747;50.674;4.616;2022-08-30T11:23:34;29.50;37.85
71088;SHT31;58747;50.674;4.616;2022-08-30T11:26:09;30.59;37.44
71088;SHT31;58747;50.674;4.616;2022-08-30T11:41:43;32.88;32.18
71088;SHT31;58747;50.674;4.616;2022-08-30T11:46:49;33.26;31.53
71088;SHT31;58747;50.674;4.616;2022-08-30T11:49:50;32.99;32.05
71088;SHT31;58747;50.674;4.616;2022-08-30T11:52:35;34.44;29.87
71088;SHT31;58747;50.674;4.616;2022-08-30T12:10:54;29.57;36.17
71088;SHT31;58747;50.674;4.616;2022-08-30T12:16:03;29.05;37.86
71088;SHT31;58747;50.674;4.616;2022-08-30T12:18:46;28.76;37.98
71088;SHT31;58747;50.674;4.616;2022-08-30T12:29:07;28.40;38.30
71088;SHT31;58747;50.674;4.616;2022-08-30T12:31:40;28.45;37.82
71088;SHT31;58747;50.674;4.616;2022-08-30T12:34:06;28.47;39.15
71088;SHT31;58747;50.674;4.616;2022-08-30T12:36:53;28.80;37.66
71088;SHT31;58747;50.674;4.616;2022-08-30T12:39:23;29.67;36.95
71088;SHT31;58747;50.674;4.616;2022-08-30T12:41:50;29.91;35.75
71088;SHT31;58747;50.674;4.616;2022-08-30T12:44:22;30.56;34.82
71088;SHT31;58747;50.674;4.616;2022-08-30T12:46:54;31.10;32.78
71088;SHT31;58747;50.674;4.616;2022-08-30T12:49:23;31.28;32.78
71088;SHT31;58747;50.674;4.616;2022-08-30T12:51:49;30.62;34.91
71088;SHT31;58747;50.674;4.616;2022-08-30T12:54:20;31.97;32.29
71088;SHT31;58747;50.674;4.616;2022-08-30T12:56:50;31.03;33.30
71088;SHT31;58747;50.674;4.616;2022-08-30T13:02:42;29.33;35.89
71088;SHT31;58747;50.674;4.616;2022-08-30T13:08:29;28.58;37.53
71088;SHT31;58747;50.674;4.616;2022-08-30T13:13:27;28.41;38.72
71088;SHT31;58747;50.674;4.616;2022-08-30T13:15:54;28.24;37.95
71088;SHT31;58747;50.674;4.616;2022-08-30T13:18:28;27.96;39.01
71088;SHT31;58747;50.674;4.616;2022-08-30T13:23:45;27.96;39.51
71088;SHT31;58747;50.674;4.616;2022-08-30T13:26:10;28.07;39.17
71088;SHT31;58747;50.674;4.616;2022-08-30T13:28:56;28.07;39.14
71088;SHT31;58747;50.674;4.616;2022-08-30T13:31:26;28.09;39.46
71088;SHT31;58747;50.674;4.616;2022-08-30T13:33:52;28.18;39.10
71088;SHT31;58747;50.674;4.616;2022-08-30T13:36:20;28.10;38.88
71088;SHT31;58747;50.674;4.616;2022-08-30T13:38:46;28.07;38.86
71088;SHT31;58747;50.674;4.616;2022-08-30T13:41:13;28.03;39.77
71088;SHT31;58747;50.674;4.616;2022-08-30T13:43:39;28.10;39.44
71088;SHT31;58747;50.674;4.616;2022-08-30T13:46:05;28.10;38.61
71088;SHT31;58747;50.674;4.616;2022-08-30T13:48:32;28.13;39.79
71088;SHT31;58747;50.674;4.616;2022-08-30T13:50:57;28.09;38.87
71088;SHT31;58747;50.674;4.616;2022-08-30T13:53:23;27.99;39.25
71088;SHT31;58747;50.674;4.616;2022-08-30T13:55:49;27.79;39.82
71088;SHT31;58747;50.674;4.616;2022-08-30T13:58:15;27.49;40.55
71088;SHT31;58747;50.674;4.616;2022-08-30T14:00:42;27.35;42.38
71088;SHT31;58747;50.674;4.616;2022-08-30T14:03:07;27.55;40.65
71088;SHT31;58747;50.674;4.616;2022-08-30T14:05:36;27.74;40.15
71088;SHT31;58747;50.674;4.616;2022-08-30T14:08:04;27.76;40.59
71088;SHT31;58747;50.674;4.616;2022-08-30T14:10:31;27.85;40.20
71088;SHT31;58747;50.674;4.616;2022-08-30T14:12:57;27.88;39.97
71088;SHT31;58747;50.674;4.616;2022-08-30T14:15:23;27.85;39.88
71088;SHT31;58747;50.674;4.616;2022-08-30T14:24:03;27.70;40.53
71088;SHT31;58747;50.674;4.616;2022-08-30T14:27:00;27.79;40.73
71088;SHT31;58747;50.674;4.616;2022-08-30T14:30:02;27.85;40.47
71088;SHT31;58747;50.674;4.616;2022-08-30T14:32:28;27.85;40.60
71088;SHT31;58747;50.674;4.616;2022-08-30T14:34:54;27.82;40.96
71088;SHT31;58747;50.674;4.616;2022-08-30T14:37:19;27.81;40.51
71088;SHT31;58747;50.674;4.616;2022-08-30T14:39:45;27.81;40.60
71088;SHT31;58747;50.674;4.616;2022-08-30T14:42:10;27.76;40.97
71088;SHT31;58747;50.674;4.616;2022-08-30T14:44:36;27.82;40.33
71088;SHT31;58747;50.674;4.616;2022-08-30T14:47:03;27.85;39.90
71088;SHT31;58747;50.674;4.616;2022-08-30T14:49:29;27.78;40.51
71088;SHT31;58747;50.674;4.616;2022-08-30T14:51:54;27.70;40.33
71088;SHT31;58747;50.674;4.616;2022-08-30T14:54:25;27.62;40.53
71088;SHT31;58747;50.674;4.616;2022-08-30T14:56:51;27.49;40.29
71088;SHT31;58747;50.674;4.616;2022-08-30T14:59:17;27.39;41.19
71088;SHT31;58747;50.674;4.616;2022-08-30T15:01:43;27.35;41.19
71088;SHT31;58747;50.674;4.616;2022-08-30T15:04:10;27.28;41.02
71088;SHT31;58747;50.674;4.616;2022-08-30T15:06:37;27.31;41.36
71088;SHT31;58747;50.674;4.616;2022-08-30T15:09:05;27.35;41.29
71088;SHT31;58747;50.674;4.616;2022-08-30T15:11:31;27.35;41.30
71088;SHT31;58747;50.674;4.616;2022-08-30T15:13:57;27.34;40.94
71088;SHT31;58747;50.674;4.616;2022-08-30T15:16:29;27.21;40.88
71088;SHT31;58747;50.674;4.616;2022-08-30T15:18:57;27.04;41.31
71088;SHT31;58747;50.674;4.616;2022-08-30T15:21:25;26.98;41.32
71088;SHT31;58747;50.674;4.616;2022-08-30T15:23:51;27.00;41.27
71088;SHT31;58747;50.674;4.616;2022-08-30T15:26:17;27.03;42.18
71088;SHT31;58747;50.674;4.616;2022-08-30T15:28:43;26.94;41.97
71088;SHT31;58747;50.674;4.616;2022-08-30T15:31:08;26.90;42.45
71088;SHT31;58747;50.674;4.616;2022-08-30T15:33:34;26.97;41.97
71088;SHT31;58747;50.674;4.616;2022-08-30T15:36:00;27.05;41.94
71088;SHT31;58747;50.674;4.616;2022-08-30T15:38:27;27.07;42.21
71088;SHT31;58747;50.674;4.616;2022-08-30T15:40:53;26.91;41.57
71088;SHT31;58747;50.674;4.616;2022-08-30T15:43:18;26.88;42.03
71088;SHT31;58747;50.674;4.616;2022-08-30T15:45:43;26.88;42.37
71088;SHT31;58747;50.674;4.616;2022-08-30T15:48:09;26.79;42.62
71088;SHT31;58747;50.674;4.616;2022-08-30T15:50:34;26.82;43.13
71088;SHT31;58747;50.674;4.616;2022-08-30T15:53:00;26.87;42.93
71088;SHT31;58747;50.674;4.616;2022-08-30T15:55:26;26.87;42.30
71088;SHT31;58747;50.674;4.616;2022-08-30T15:57:51;26.80;42.46
71088;SHT31;58747;50.674;4.616;2022-08-30T16:00:17;26.64;42.60
71088;SHT31;58747;50.674;4.616;2022-08-30T16:02:42;26.59;42.21
71088;SHT31;58747;50.674;4.616;2022-08-30T16:05:12;26.61;42.50
71088;SHT31;58747;50.674;4.616;2022-08-30T16:07:38;26.56;43.03
71088;SHT31;58747;50.674;4.616;2022-08-30T16:10:03;26.53;43.09
71088;SHT31;58747;50.674;4.616;2022-08-30T16:12:29;26.49;42.39
71088;SHT31;58747;50.674;4.616;2022-08-30T16:14:54;26.43;42.26
71088;SHT31;58747;50.674;4.616;2022-08-30T16:17:20;26.45;42.90
71088;SHT31;58747;50.674;4.616;2022-08-30T16:19:45;26.47;43.21
71088;SHT31;58747;50.674;4.616;2022-08-30T16:22:10;26.49;43.28
71088;SHT31;58747;50.674;4.616;2022-08-30T16:24:36;26.49;43.37
71088;SHT31;58747;50.674;4.616;2022-08-30T16:27:02;26.43;42.35
71088;SHT31;58747;50.674;4.616;2022-08-30T16:29:27;26.37;42.43
71088;SHT31;58747;50.674;4.616;2022-08-30T16:31:53;26.36;42.60
71088;SHT31;58747;50.674;4.616;2022-08-30T16:34:19;26.45;43.20
71088;SHT31;58747;50.674;4.616;2022-08-30T16:36:44;26.39;43.10
71088;SHT31;58747;50.674;4.616;2022-08-30T16:39:10;26.32;43.04
71088;SHT31;58747;50.674;4.616;2022-08-30T16:41:37;26.37;42.73
71088;SHT31;58747;50.674;4.616;2022-08-30T16:44:03;26.29;43.34
71088;SHT31;58747;50.674;4.616;2022-08-30T16:46:29;26.28;43.15
71088;SHT31;58747;50.674;4.616;2022-08-30T16:48:57;26.14;43.20
71088;SHT31;58747;50.674;4.616;2022-08-30T16:51:24;26.04;43.35
71088;SHT31;58747;50.674;4.616;2022-08-30T16:53:53;26.11;43.31
71088;SHT31;58747;50.674;4.616;2022-08-30T16:56:21;26.01;43.84
71088;SHT31;58747;50.674;4.616;2022-08-30T16:58:48;25.94;44.81
71088;SHT31;58747;50.674;4.616;2022-08-30T17:01:14;25.87;44.60
71088;SHT31;58747;50.674;4.616;2022-08-30T17:03:40;25.92;44.55
71088;SHT31;58747;50.674;4.616;2022-08-30T17:06:06;25.80;44.60
71088;SHT31;58747;50.674;4.616;2022-08-30T17:08:32;25.70;44.91
71088;SHT31;58747;50.674;4.616;2022-08-30T17:10:57;25.70;45.48
71088;SHT31;58747;50.674;4.616;2022-08-30T17:13:23;25.56;45.02
71088;SHT31;58747;50.674;4.616;2022-08-30T17:15:48;25.43;45.54
71088;SHT31;58747;50.674;4.616;2022-08-30T17:18:15;25.40;45.67
71088;SHT31;58747;50.674;4.616;2022-08-30T17:20:41;25.39;45.97
71088;SHT31;58747;50.674;4.616;2022-08-30T17:23:06;25.30;45.73
71088;SHT31;58747;50.674;4.616;2022-08-30T17:25:33;25.23;45.93
71088;SHT31;58747;50.674;4.616;2022-08-30T17:27:58;25.18;46.13
71088;SHT31;58747;50.674;4.616;2022-08-30T17:30:24;25.13;46.17
71088;SHT31;58747;50.674;4.616;2022-08-30T17:32:49;25.13;45.81
71088;SHT31;58747;50.674;4.616;2022-08-30T17:35:18;25.00;46.38
71088;SHT31;58747;50.674;4.616;2022-08-30T17:37:43;24.93;46.67
71088;SHT31;58747;50.674;4.616;2022-08-30T17:40:09;24.89;46.85
71088;SHT31;58747;50.674;4.616;2022-08-30T17:42:34;24.86;46.86
71088;SHT31;58747;50.674;4.616;2022-08-30T17:45:06;24.88;46.19
71088;SHT31;58747;50.674;4.616;2022-08-30T17:47:31;24.71;46.66
71088;SHT31;58747;50.674;4.616;2022-08-30T17:49:57;24.61;47.28
71088;SHT31;58747;50.674;4.616;2022-08-30T17:52:23;24.52;47.33
71088;SHT31;58747;50.674;4.616;2022-08-30T17:54:48;24.44;47.53
71088;SHT31;58747;50.674;4.616;2022-08-30T17:57:15;24.45;47.00
71088;SHT31;58747;50.674;4.616;2022-08-30T17:59:40;24.42;47.77
71088;SHT31;58747;50.674;4.616;2022-08-30T18:02:07;24.34;47.15
71088;SHT31;58747;50.674;4.616;2022-08-30T18:04:32;24.25;47.21
71088;SHT31;58747;50.674;4.616;2022-08-30T18:06:58;24.20;47.96
71088;SHT31;58747;50.674;4.616;2022-08-30T18:09:23;24.17;47.64
71088;SHT31;58747;50.674;4.616;2022-08-30T18:11:49;24.17;47.61
71088;SHT31;58747;50.674;4.616;2022-08-30T18:14:15;24.13;47.39
71088;SHT31;58747;50.674;4.616;2022-08-30T18:16:41;24.04;48.19
71088;SHT31;58747;50.674;4.616;2022-08-30T18:19:06;23.97;47.67
71088;SHT31;58747;50.674;4.616;2022-08-30T18:21:32;23.90;47.85
71088;SHT31;58747;50.674;4.616;2022-08-30T18:23:58;23.90;47.75
71088;SHT31;58747;50.674;4.616;2022-08-30T18:26:24;23.80;48.05
71088;SHT31;58747;50.674;4.616;2022-08-30T18:28:49;23.70;47.92
71088;SHT31;58747;50.674;4.616;2022-08-30T18:31:15;23.76;47.72
71088;SHT31;58747;50.674;4.616;2022-08-30T18:33:41;23.75;47.51
71088;SHT31;58747;50.674;4.616;2022-08-30T18:36:06;23.63;47.17
71088;SHT31;58747;50.674;4.616;2022-08-30T18:38:32;23.46;47.25
71088;SHT31;58747;50.674;4.616;2022-08-30T18:41:00;23.42;47.58
71088;SHT31;58747;50.674;4.616;2022-08-30T18:43:26;23.32;47.74
71088;SHT31;58747;50.674;4.616;2022-08-30T18:45:52;23.29;47.79
71088;SHT31;58747;50.674;4.616;2022-08-30T18:48:17;23.32;47.47
71088;SHT31;58747;50.674;4.616;2022-08-30T18:50:43;23.15;48.06